createdAt,value
2022-08-17T00:02:25.507Z,62.84
2022-08-17T00:04:55.138Z,62.84
2022-08-17T00:07:23.412Z,62.94
2022-08-17T00:09:50.385Z,63.18
2022-08-17T00:12:41.880Z,63.25
2022-08-17T00:15:06.042Z,62.98
2022-08-17T00:17:37.764Z,63.17
2022-08-17T00:20:05.952Z,63.30
2022-08-17T00:22:36.374Z,63.62
2022-08-17T00:25:10.374Z,63.33
2022-08-17T00:27:37.462Z,63.59
2022-08-17T00:30:07.699Z,63.38
2022-08-17T00:33:14.381Z,63.63
2022-08-17T00:35:30.978Z,63.73
2022-08-17T00:37:58.043Z,63.73
2022-08-17T00:40:25.075Z,63.61
2022-08-17T00:42:53.475Z,63.52
2022-08-17T00:45:20.766Z,63.47
2022-08-17T00:47:49.509Z,63.65
2022-08-17T00:50:19.033Z,63.56
2022-08-17T00:52:54.931Z,63.76
2022-08-17T00:55:24.254Z,63.79
2022-08-17T00:57:56.724Z,63.96
2022-08-17T01:00:32.608Z,64.28
2022-08-17T01:03:06.446Z,64.27
2022-08-17T01:05:38.454Z,64.27
2022-08-17T01:08:13.399Z,64.25
2022-08-17T01:10:59.417Z,64.29
2022-08-17T01:13:41.863Z,64.36
2022-08-17T01:16:29.954Z,64.59
2022-08-17T01:19:05.366Z,64.61
2022-08-17T01:21:47.769Z,64.52
2022-08-17T01:24:15.706Z,64.93
2022-08-17T01:26:44.266Z,64.79
2022-08-17T01:29:12.711Z,64.66
2022-08-17T01:31:45.635Z,64.60
2022-08-17T01:34:15.991Z,64.43
2022-08-17T01:36:46.019Z,64.31
2022-08-17T01:39:23.449Z,64.36
2022-08-17T01:41:54.022Z,64.38
2022-08-17T01:44:23.539Z,64.31
2022-08-17T01:46:50.704Z,64.36
2022-08-17T01:49:19.752Z,64.35
2022-08-17T01:51:46.808Z,64.27
2022-08-17T01:54:16.254Z,64.46
2022-08-17T01:56:47.829Z,64.62
2022-08-17T01:59:16.548Z,64.51
2022-08-17T02:01:44.219Z,64.90
2022-08-17T02:04:12.332Z,65.09
2022-08-17T02:06:45.199Z,64.96
2022-08-17T02:09:25.686Z,65.37
2022-08-17T02:11:56.304Z,65.35
2022-08-17T02:14:25.328Z,65.49
2022-08-17T02:16:52.586Z,65.47
2022-08-17T02:19:20.110Z,65.55
2022-08-17T02:21:49.856Z,64.98
2022-08-17T02:24:58.778Z,65.12
2022-08-17T02:27:12.955Z,65.10
2022-08-17T02:29:40.229Z,65.23
2022-08-17T02:32:15.367Z,65.75
2022-08-17T02:34:52.826Z,65.75
2022-08-17T02:37:19.736Z,65.71
2022-08-17T02:39:46.822Z,66.12
2022-08-17T02:42:15.176Z,65.93
2022-08-17T02:44:42.373Z,65.82
2022-08-17T02:47:10.543Z,65.86
2022-08-17T02:49:38.151Z,65.82
2022-08-17T02:52:07.352Z,65.69
2022-08-17T02:54:39.842Z,65.69
2022-08-17T02:57:08.320Z,65.16
2022-08-17T02:59:35.425Z,64.85
2022-08-17T03:02:11.317Z,64.34
2022-08-17T03:04:38.954Z,64.05
2022-08-17T03:07:06.721Z,63.78
2022-08-17T03:09:34.074Z,63.56
2022-08-17T03:12:09.168Z,63.07
2022-08-17T03:14:43.572Z,62.67
2022-08-17T03:17:15.899Z,60.13
2022-08-17T03:19:45.038Z,55.83
2022-08-17T03:22:35.864Z,52.94
2022-08-17T03:24:59.789Z,50.34
2022-08-17T03:27:26.762Z,48.91
2022-08-17T03:29:53.710Z,47.49
2022-08-17T03:32:21.372Z,46.08
2022-08-17T03:34:48.578Z,45.11
2022-08-17T03:37:15.605Z,43.92
2022-08-17T03:39:43.149Z,43.48
2022-08-17T03:42:31.963Z,42.57
2022-08-17T03:45:01.752Z,41.81
2022-08-17T03:47:49.137Z,41.13
2022-08-17T03:50:35.627Z,40.50
2022-08-17T03:53:33.246Z,41.80
2022-08-17T03:56:23.255Z,44.94
2022-08-17T03:58:50.583Z,46.63
2022-08-17T04:01:18.075Z,47.99
2022-08-17T04:03:45.205Z,48.33
2022-08-17T04:06:12.099Z,48.31
2022-08-17T04:08:39.216Z,48.58
2022-08-17T04:11:06.264Z,49.04
2022-08-17T04:13:33.222Z,48.85
2022-08-17T04:16:00.221Z,49.23
2022-08-17T04:18:27.229Z,49.23
2022-08-17T04:20:54.264Z,49.71
2022-08-17T04:23:21.472Z,49.08
2022-08-17T04:25:50.604Z,48.56
2022-08-17T04:28:18.896Z,49.05
2022-08-17T04:30:47.659Z,48.59
2022-08-17T04:33:16.970Z,48.34
2022-08-17T04:35:47.350Z,48.41
2022-08-17T04:38:18.311Z,48.05
2022-08-17T04:41:03.657Z,47.97
2022-08-17T04:43:33.467Z,47.79
2022-08-17T04:46:03.438Z,48.28
2022-08-17T04:48:42.910Z,48.64
2022-08-17T04:51:17.673Z,48.18
2022-08-17T04:53:54.062Z,47.98
2022-08-17T04:56:25.287Z,47.10
2022-08-17T04:58:55.863Z,46.40
2022-08-17T05:01:24.862Z,46.72
2022-08-17T05:03:53.693Z,46.50
2022-08-17T05:06:21.187Z,46.40
2022-08-17T05:08:48.269Z,45.94
2022-08-17T05:11:15.813Z,45.54
2022-08-17T05:13:42.754Z,45.40
2022-08-17T05:16:11.027Z,45.08
2022-08-17T05:18:38.953Z,45.07
2022-08-17T05:21:07.065Z,44.84
2022-08-17T05:23:42.459Z,45.17
2022-08-17T05:26:26.977Z,44.51
2022-08-17T05:28:57.148Z,44.29
2022-08-17T05:31:28.001Z,44.30
2022-08-17T05:33:55.081Z,44.11
2022-08-17T05:36:43.247Z,43.87
2022-08-17T05:39:09.454Z,43.77
2022-08-17T05:41:43.009Z,43.99
2022-08-17T05:44:10.158Z,43.61
2022-08-17T05:46:41.478Z,44.06
2022-08-17T05:49:08.894Z,43.46
2022-08-17T05:52:10.158Z,42.79
2022-08-17T05:55:09.305Z,43.15
2022-08-17T05:57:53.478Z,42.66
2022-08-17T06:00:42.097Z,42.54
2022-08-17T06:03:33.228Z,42.94
2022-08-17T06:06:17.365Z,42.88
2022-08-17T06:08:53.598Z,43.08
2022-08-17T06:11:39.070Z,42.81
2022-08-17T06:14:25.742Z,42.44
2022-08-17T06:17:01.182Z,41.96
2022-08-17T06:19:34.144Z,41.74
2022-08-17T06:22:02.950Z,42.04
2022-08-17T06:24:51.709Z,41.77
2022-08-17T06:27:37.738Z,41.48
2022-08-17T06:30:21.605Z,41.21
2022-08-17T06:32:51.030Z,41.33
2022-08-17T06:35:31.840Z,42.19
2022-08-17T06:38:38.531Z,42.04
2022-08-17T06:41:37.565Z,41.32
2022-08-17T06:44:43.186Z,41.01
2022-08-17T06:47:35.456Z,41.02
2022-08-17T06:50:08.547Z,40.66
2022-08-17T06:52:59.508Z,40.81
2022-08-17T06:55:38.124Z,39.70
2022-08-17T06:58:15.968Z,39.69
2022-08-17T07:00:47.422Z,39.41
2022-08-17T07:03:38.155Z,39.43
2022-08-17T07:06:17.446Z,39.50
2022-08-17T07:08:56.195Z,38.94
2022-08-17T07:11:34.057Z,38.78
2022-08-17T07:14:19.782Z,38.72
2022-08-17T07:16:51.784Z,38.27
2022-08-17T07:19:25.418Z,37.66
2022-08-17T07:22:10.987Z,37.54
2022-08-17T07:24:53.144Z,37.41
2022-08-17T07:27:22.905Z,37.49
2022-08-17T07:30:03.755Z,37.40
2022-08-17T07:32:48.431Z,37.14
2022-08-17T07:35:21.189Z,35.39
2022-08-17T07:37:55.789Z,35.56
2022-08-17T07:40:49.161Z,35.74
2022-08-17T07:43:22.230Z,35.68
2022-08-17T07:46:20.487Z,35.31
2022-08-17T07:48:52.559Z,35.02
2022-08-17T07:51:27.839Z,35.00
2022-08-17T07:54:13.463Z,34.89
2022-08-17T07:56:56.504Z,34.49
2022-08-17T07:59:35.709Z,34.19
2022-08-17T08:02:05.399Z,35.30
2022-08-17T08:05:01.863Z,34.42
2022-08-17T08:07:58.154Z,34.24
2022-08-17T08:10:35.599Z,33.79
2022-08-17T08:13:14.274Z,33.99
2022-08-17T08:15:53.850Z,33.88
2022-08-17T08:18:55.065Z,34.07
2022-08-17T08:21:24.810Z,33.56
2022-08-17T08:23:54.824Z,33.14
2022-08-17T08:26:51.244Z,33.10
2022-08-17T08:29:28.446Z,33.36
2022-08-17T08:32:22.163Z,32.89
2022-08-17T08:35:02.920Z,32.47
2022-08-17T08:37:43.690Z,32.20
2022-08-17T08:40:11.519Z,32.09
2022-08-17T08:43:14.029Z,31.80
2022-08-17T08:45:56.723Z,31.86
2022-08-17T08:48:53.214Z,31.29
2022-08-17T08:51:35.949Z,31.76
2022-08-17T08:54:28.623Z,32.61
2022-08-17T08:57:30.872Z,32.00
2022-08-17T09:00:20.243Z,31.90
2022-08-17T09:02:56.553Z,31.50
2022-08-17T09:05:32.437Z,31.82
2022-08-17T09:08:18.012Z,31.47
2022-08-17T09:10:44.983Z,31.67
2022-08-17T09:13:31.558Z,31.45
2022-08-17T09:16:11.578Z,31.97
2022-08-17T09:19:00.247Z,31.70
2022-08-17T09:21:54.985Z,31.40
2022-08-17T09:25:03.341Z,31.14
2022-08-17T09:27:48.118Z,30.98
2022-08-17T09:30:15.579Z,30.04
2022-08-17T09:32:47.075Z,30.07
2022-08-17T09:35:37.040Z,30.35
2022-08-17T09:38:40.562Z,30.19
2022-08-17T09:41:20.512Z,30.57
2022-08-17T09:44:23.692Z,30.52
2022-08-17T09:46:56.062Z,30.45
2022-08-17T09:49:35.008Z,30.23
2022-08-17T09:52:17.866Z,30.74
2022-08-17T09:54:46.113Z,30.25
2022-08-17T09:57:32.571Z,30.43
2022-08-17T10:00:12.864Z,30.15
2022-08-17T10:02:54.754Z,30.15
2022-08-17T10:05:46.251Z,30.26
2022-08-17T10:08:15.939Z,29.49
2022-08-17T10:11:08.082Z,29.99
2022-08-17T10:13:47.183Z,29.94
2022-08-17T10:16:26.337Z,29.76
2022-08-17T10:19:24.280Z,29.96
2022-08-17T10:22:32.352Z,29.48
2022-08-17T10:25:24.207Z,29.82
2022-08-17T10:27:59.811Z,29.43
2022-08-17T10:30:31.805Z,29.47
2022-08-17T10:33:21.567Z,29.52
2022-08-17T10:36:32.170Z,29.54
2022-08-17T10:39:11.450Z,29.45
2022-08-17T10:41:44.072Z,29.70
2022-08-17T10:44:40.272Z,29.76
2022-08-17T10:47:17.301Z,29.72
2022-08-17T10:49:56.095Z,29.73
2022-08-17T10:52:25.007Z,29.81
2022-08-17T10:54:58.523Z,30.17
2022-08-17T10:57:41.997Z,29.83
2022-08-17T11:00:35.272Z,29.75
2022-08-17T11:03:07.912Z,29.63
2022-08-17T11:05:54.144Z,29.59
2022-08-17T11:08:33.295Z,29.99
2022-08-17T11:11:19.793Z,29.32
2022-08-17T11:13:49.579Z,29.36
2022-08-17T11:16:48.123Z,29.48
2022-08-17T11:19:41.731Z,29.59
2022-08-17T11:22:33.405Z,29.44
2022-08-17T11:25:31.354Z,29.83
2022-08-17T11:28:09.471Z,29.32
2022-08-17T11:30:51.673Z,29.69
2022-08-17T11:33:38.098Z,29.24
2022-08-17T11:36:38.921Z,28.29
2022-08-17T11:39:05.763Z,28.52
2022-08-17T11:41:35.586Z,28.49
2022-08-17T11:44:29.151Z,28.14
2022-08-17T11:48:23.833Z,27.84
2022-08-17T11:51:47.269Z,28.29
2022-08-17T11:54:34.781Z,28.13
2022-08-17T11:57:29.383Z,27.99
2022-08-17T12:00:29.084Z,27.64
2022-08-17T12:03:24.916Z,27.48
2022-08-17T12:06:07.112Z,27.59
2022-08-17T12:08:43.478Z,27.37
2022-08-17T12:11:55.488Z,27.45
2022-08-17T12:14:21.267Z,27.77
2022-08-17T12:17:05.718Z,28.00
2022-08-17T12:19:34.535Z,28.07
2022-08-17T12:22:23.610Z,27.87
2022-08-17T12:24:58.074Z,28.16
2022-08-17T12:27:53.137Z,27.74
2022-08-17T12:30:22.190Z,28.01
2022-08-17T12:32:50.126Z,27.61
2022-08-17T12:35:34.706Z,28.06
2022-08-17T12:38:04.513Z,27.60
2022-08-17T12:40:33.066Z,27.94
2022-08-17T12:43:18.034Z,27.58
2022-08-17T12:45:53.751Z,27.29
2022-08-17T12:48:28.706Z,27.34
2022-08-17T12:51:01.958Z,27.47
2022-08-17T12:53:31.999Z,27.45
2022-08-17T12:56:01.327Z,27.24
2022-08-17T12:58:35.174Z,27.10
2022-08-17T13:01:08.884Z,26.62
2022-08-17T13:03:40.828Z,26.59
2022-08-17T13:06:12.214Z,27.08
2022-08-17T13:08:50.283Z,26.77
2022-08-17T13:11:21.179Z,27.00
2022-08-17T13:13:55.119Z,26.55
2022-08-17T13:16:28.151Z,26.96
2022-08-17T13:18:55.387Z,26.97
2022-08-17T13:21:30.635Z,27.07
2022-08-17T13:24:05.988Z,27.04
2022-08-17T13:27:08.227Z,27.14
2022-08-17T13:29:45.011Z,27.05
2022-08-17T13:32:36.267Z,27.38
2022-08-17T13:35:32.826Z,27.20
2022-08-17T13:38:11.851Z,27.10
2022-08-17T13:40:45.870Z,27.65
2022-08-17T13:43:40.810Z,27.01
2022-08-17T13:46:32.563Z,27.41
2022-08-17T13:49:06.919Z,27.37
2022-08-17T13:51:41.781Z,26.86
2022-08-17T13:54:23.494Z,27.28
2022-08-17T13:57:00.245Z,27.07
2022-08-17T13:59:54.655Z,26.71
2022-08-17T14:02:28.347Z,26.81
2022-08-17T14:05:02.052Z,27.07
2022-08-17T14:07:37.410Z,26.99
2022-08-17T14:10:10.601Z,27.41
2022-08-17T14:12:40.594Z,26.83
2022-08-17T14:15:10.252Z,27.15
2022-08-17T14:17:39.125Z,26.86
2022-08-17T14:20:09.802Z,27.42
2022-08-17T14:22:44.591Z,27.22
2022-08-17T14:25:14.132Z,26.97
2022-08-17T14:27:53.185Z,27.42
2022-08-17T14:30:29.703Z,27.49
2022-08-17T14:37:25.321Z,27.48
2022-08-17T14:40:01.402Z,27.64
2022-08-17T14:42:33.313Z,27.93
2022-08-17T14:45:06.095Z,27.52
2022-08-17T14:47:34.259Z,27.55
2022-08-17T14:50:02.260Z,27.61
2022-08-17T14:52:31.372Z,27.72
2022-08-17T14:58:07.030Z,28.07
2022-08-17T15:00:33.972Z,28.15
2022-08-17T15:03:02.309Z,28.12
2022-08-17T15:05:35.504Z,28.41
2022-08-17T15:08:04.742Z,28.58
2022-08-17T15:10:57.506Z,28.42
2022-08-17T15:13:26.479Z,28.57
2022-08-17T15:15:54.760Z,28.56
2022-08-17T15:18:22.515Z,28.76
2022-08-17T15:20:50.152Z,28.62
2022-08-17T15:23:20.112Z,28.76
2022-08-17T15:25:48.788Z,28.27
2022-08-17T15:28:16.919Z,28.69
2022-08-17T15:30:45.056Z,28.50
2022-08-17T15:33:29.584Z,29.04
2022-08-17T15:35:59.348Z,29.10
2022-08-17T15:38:28.112Z,29.22
2022-08-17T15:40:56.811Z,29.13
2022-08-17T15:43:28.362Z,29.59
2022-08-17T15:46:03.634Z,29.22
2022-08-17T15:48:42.173Z,29.69
2022-08-17T15:51:13.780Z,29.94
2022-08-17T15:53:43.121Z,29.80
2022-08-17T15:56:11.260Z,30.45
2022-08-17T15:58:38.638Z,30.48
2022-08-17T16:01:16.617Z,30.66
2022-08-17T16:04:04.069Z,30.95
2022-08-17T16:06:34.562Z,30.93
2022-08-17T16:09:02.030Z,30.77
2022-08-17T16:11:28.957Z,31.24
2022-08-17T16:13:56.159Z,31.30
2022-08-17T16:16:24.334Z,31.09
2022-08-17T16:18:54.517Z,31.58
2022-08-17T16:21:27.204Z,31.55
2022-08-17T16:23:58.309Z,31.99
2022-08-17T16:26:26.686Z,32.01
2022-08-17T16:28:54.828Z,32.37
2022-08-17T16:31:22.661Z,32.38
2022-08-17T16:34:15.788Z,32.33
2022-08-17T16:36:38.765Z,32.53
2022-08-17T16:39:05.766Z,32.51
2022-08-17T16:41:48.866Z,32.89
2022-08-17T16:44:18.880Z,33.50
2022-08-17T16:46:50.379Z,33.15
2022-08-17T16:49:35.795Z,33.11
2022-08-17T16:52:11.987Z,33.57
2022-08-17T16:54:43.933Z,33.64
2022-08-17T16:57:12.400Z,34.18
2022-08-17T16:59:42.411Z,34.11
2022-08-17T17:02:14.512Z,34.18
2022-08-17T17:05:00.182Z,34.31
2022-08-17T17:07:45.490Z,34.39
2022-08-17T17:10:20.034Z,34.94
2022-08-17T17:13:01.414Z,35.06
2022-08-17T17:15:43.108Z,35.27
2022-08-17T17:18:12.841Z,35.38
2022-08-17T17:20:51.159Z,35.58
2022-08-17T17:23:47.668Z,35.81
2022-08-17T17:26:48.478Z,36.05
2022-08-17T17:29:47.354Z,36.36
2022-08-17T17:32:28.526Z,36.64
2022-08-17T17:35:09.728Z,36.72
2022-08-17T17:37:40.197Z,36.98
2022-08-17T17:40:15.440Z,36.79
2022-08-17T17:42:44.200Z,37.52
2022-08-17T17:45:23.983Z,37.35
2022-08-17T17:47:51.440Z,37.71
2022-08-17T17:50:21.490Z,37.99
2022-08-17T17:53:02.251Z,38.09
2022-08-17T17:55:38.489Z,38.02
2022-08-17T17:58:33.305Z,38.10
2022-08-17T18:01:25.154Z,38.27
2022-08-17T18:03:59.224Z,38.83
2022-08-17T18:06:50.517Z,38.74
2022-08-17T18:09:50.982Z,38.88
2022-08-17T18:12:37.671Z,39.30
2022-08-17T18:15:23.883Z,39.57
2022-08-17T18:18:09.768Z,39.40
2022-08-17T18:20:53.258Z,39.93
2022-08-17T18:23:27.711Z,40.01
2022-08-17T18:25:56.819Z,40.06
2022-08-17T18:28:35.733Z,40.21
2022-08-17T18:31:16.352Z,40.26
2022-08-17T18:33:47.082Z,40.50
2022-08-17T18:36:29.007Z,40.38
2022-08-17T18:39:16.321Z,40.32
2022-08-17T18:41:47.168Z,40.82
2022-08-17T18:44:38.116Z,40.70
2022-08-17T18:47:15.854Z,41.00
2022-08-17T18:49:58.726Z,40.81
2022-08-17T18:52:33.861Z,41.09
2022-08-17T18:55:14.371Z,41.52
2022-08-17T18:57:59.410Z,41.49
2022-08-17T19:00:32.279Z,41.47
2022-08-17T19:03:04.746Z,41.82
2022-08-17T19:05:42.242Z,41.79
2022-08-17T19:08:29.337Z,41.74
2022-08-17T19:11:09.867Z,41.84
2022-08-17T19:13:45.707Z,41.75
2022-08-17T19:16:41.521Z,41.78
2022-08-17T19:19:15.837Z,42.16
2022-08-17T19:21:50.705Z,42.14
2022-08-17T19:24:26.505Z,42.07
2022-08-17T19:27:11.396Z,42.26
2022-08-17T19:30:01.648Z,42.38
2022-08-17T19:32:34.449Z,42.79
2022-08-17T19:35:03.135Z,43.15
2022-08-17T19:38:04.862Z,43.24
2022-08-17T19:40:54.384Z,43.32
2022-08-17T19:43:51.387Z,43.53
2022-08-17T19:46:37.373Z,43.76
2022-08-17T19:49:16.072Z,43.98
2022-08-17T19:51:55.778Z,43.74
2022-08-17T19:54:35.164Z,44.14
2022-08-17T19:57:07.811Z,44.40
2022-08-17T20:00:09.901Z,44.43
2022-08-17T20:02:37.202Z,44.71
2022-08-17T20:05:37.282Z,44.81
2022-08-17T20:08:24.547Z,44.85
2022-08-17T20:10:57.460Z,44.91
2022-08-17T20:13:35.809Z,45.12
2022-08-17T20:16:04.163Z,45.29
2022-08-17T20:18:38.298Z,45.31
2022-08-17T20:21:20.003Z,45.39
2022-08-17T20:24:02.051Z,45.61
2022-08-17T20:26:55.500Z,45.58
2022-08-17T20:30:00.505Z,45.59
2022-08-17T20:32:52.366Z,45.80
2022-08-17T20:35:32.877Z,46.04
2022-08-17T20:38:11.045Z,46.08
2022-08-17T20:41:04.031Z,46.42
2022-08-17T20:43:35.634Z,46.58
2022-08-17T20:46:14.511Z,46.86
2022-08-17T20:48:46.214Z,47.09
2022-08-17T20:51:40.341Z,46.91
2022-08-17T20:54:27.478Z,47.14
2022-08-17T20:56:57.388Z,47.48
2022-08-17T20:59:25.485Z,47.59
2022-08-17T21:02:17.664Z,47.55
2022-08-17T21:04:54.396Z,47.63
2022-08-17T21:07:30.334Z,47.94
2022-08-17T21:10:17.028Z,48.20
2022-08-17T21:12:48.633Z,48.28
2022-08-17T21:15:28.562Z,48.32
2022-08-17T21:18:07.126Z,48.58
2022-08-17T21:20:57.828Z,48.61
2022-08-17T21:23:43.514Z,48.65
2022-08-17T21:26:50.403Z,48.94
2022-08-17T21:29:33.805Z,49.02
2022-08-17T21:32:02.084Z,49.19
2022-08-17T21:34:29.301Z,49.38
2022-08-17T21:37:18.689Z,49.19
2022-08-17T21:40:29.148Z,49.38
2022-08-17T21:43:04.916Z,49.92
2022-08-17T21:45:36.314Z,49.95
2022-08-17T21:48:12.752Z,50.05
2022-08-17T21:50:43.012Z,50.28
2022-08-17T21:53:18.079Z,50.31
2022-08-17T21:55:50.352Z,50.47
2022-08-17T21:58:48.312Z,50.54
2022-08-17T22:01:22.040Z,51.13
2022-08-17T22:04:03.924Z,51.04
2022-08-17T22:06:41.403Z,51.13
2022-08-17T22:09:29.863Z,51.16
2022-08-17T22:12:10.986Z,51.29
2022-08-17T22:14:53.394Z,51.40
2022-08-17T22:17:36.625Z,51.39
2022-08-17T22:20:14.752Z,51.52
2022-08-17T22:23:20.213Z,51.65
2022-08-17T22:26:05.964Z,51.62
2022-08-17T22:28:45.755Z,52.09
2022-08-17T22:31:20.054Z,52.37
2022-08-17T22:33:59.589Z,52.25
2022-08-17T22:36:37.379Z,52.50
2022-08-17T22:39:04.188Z,52.48
2022-08-17T22:42:00.996Z,52.41
2022-08-17T22:44:35.708Z,52.48
2022-08-17T22:47:11.607Z,52.64
2022-08-17T22:49:53.209Z,52.72
2022-08-17T22:53:00.455Z,52.49
2022-08-17T22:55:49.859Z,52.96
2022-08-17T22:58:38.524Z,52.97
2022-08-17T23:01:23.840Z,53.07
2022-08-17T23:04:32.314Z,53.34
2022-08-17T23:06:59.656Z,53.05
2022-08-17T23:09:26.684Z,53.06
2022-08-17T23:11:58.625Z,53.05
2022-08-17T23:14:32.895Z,53.23
2022-08-17T23:17:02.065Z,53.27
2022-08-17T23:19:31.757Z,53.63
2022-08-17T23:22:02.018Z,53.62
2022-08-17T23:24:35.666Z,53.81
2022-08-17T23:27:03.563Z,53.71
2022-08-17T23:29:30.544Z,53.83
2022-08-17T23:31:59.984Z,53.84
2022-08-17T23:34:28.715Z,54.09
2022-08-17T23:36:56.264Z,54.13
2022-08-17T23:39:27.755Z,54.00
2022-08-17T23:41:59.077Z,54.02
2022-08-17T23:44:28.462Z,54.18
2022-08-17T23:46:55.427Z,54.15
2022-08-17T23:49:23.496Z,54.05
2022-08-17T23:51:53.717Z,54.20
2022-08-17T23:54:33.728Z,54.28
2022-08-17T23:57:02.469Z,54.15
2022-08-17T23:59:29.317Z,54.29
